Time;durP1;ratioP1;P1;durP2;ratioP2;P2;SDS_P1;SDS_P2;PMS_P1;PMS_P2;Temp;Humidity;BMP_temperature;BMP_pressure;BME280_temperature;BME280_humidity;BME280_pressure;Samples;Min_cycle;Max_cycle;Signal;HPM_P1;HPM_P2
2023/06/04 00:02:21;;;;;;;5.50;2.38;;;;;;;;;;4965612;28;20034;-81
2023/06/04 00:04:47;;;;;;;5.93;2.83;;;;;;;;;;4981796;28;20585;-81
2023/06/04 00:07:12;;;;;;;4.63;2.60;;;;;;;;;;4982438;28;20064;-81
2023/06/04 00:09:37;;;;;;;6.57;3.25;;;;;;;;;;5042300;28;20033;-81
2023/06/04 00:12:03;;;;;;;6.78;4.00;;;;;;;;;;5041890;28;20037;-81
2023/06/04 00:14:29;;;;;;;5.22;2.50;;;;;;;;;;5041715;28;20037;-81
2023/06/04 00:16:54;;;;;;;3.72;1.83;;;;;;;;;;5005058;28;20057;-83
2023/06/04 00:19:19;;;;;;;4.07;2.10;;;;;;;;;;5041703;28;20037;-84
2023/06/04 00:21:45;;;;;;;4.88;2.90;;;;;;;;;;5014749;28;20052;-83
2023/06/04 00:24:12;;;;;;;7.72;3.45;;;;;;;;;;5008327;28;20082;-83
2023/06/04 00:26:37;;;;;;;8.45;4.45;;;;;;;;;;5007124;28;20076;-83
2023/06/04 00:29:03;;;;;;;6.78;4.38;;;;;;;;;;5008815;28;20064;-83
2023/06/04 00:31:28;;;;;;;9.55;4.40;;;;;;;;;;5024844;28;20553;-83
2023/06/04 00:33:54;;;;;;;7.28;4.20;;;;;;;;;;5008782;28;20166;-83
2023/06/04 00:36:19;;;;;;;5.90;3.40;;;;;;;;;;5008415;28;20037;-82
2023/06/04 00:38:45;;;;;;;8.65;3.08;;;;;;;;;;5037081;28;20460;-83
2023/06/04 00:41:11;;;;;;;6.22;3.10;;;;;;;;;;5024335;28;20423;-83
2023/06/04 00:43:36;;;;;;;6.65;3.03;;;;;;;;;;5041353;28;20037;-81
2023/06/04 00:46:03;;;;;;;7.18;3.03;;;;;;;;;;5007969;28;20387;-82
2023/06/04 00:48:30;;;;;;;5.57;2.80;;;;;;;;;;5041258;28;20048;-81
2023/06/04 00:50:56;;;;;;;5.97;3.20;;;;;;;;;;5041905;28;20037;-81
2023/06/04 00:53:23;;;;;;;6.20;3.10;;;;;;;;;;5040776;28;20515;-82
2023/06/04 00:55:48;;;;;;;6.72;2.67;;;;;;;;;;5017044;28;20037;-82
2023/06/04 00:58:15;;;;;;;4.65;2.22;;;;;;;;;;5024847;28;20090;-81
2023/06/04 01:00:42;;;;;;;4.45;2.40;;;;;;;;;;5023192;28;20033;-82
2023/06/04 01:03:13;;;;;;;4.38;2.08;;;;;;;;;;5023569;28;20507;-82
2023/06/04 01:06:01;;;;;;;5.03;1.90;;;;;;;;;;5013313;28;20037;-81
2023/06/04 01:08:27;;;;;;;3.22;1.60;;;;;;;;;;5024413;28;20112;-82
2023/06/04 01:10:55;;;;;;;3.90;1.50;;;;;;;;;;5024111;28;20600;-81
2023/06/04 01:13:22;;;;;;;4.13;1.50;;;;;;;;;;5014875;28;20522;-82
2023/06/04 01:15:47;;;;;;;4.32;1.35;;;;;;;;;;5043410;28;20033;-81
2023/06/04 01:18:28;;;;;;;4.05;1.30;;;;;;;;;;5025867;28;20836;-81
2023/06/04 01:21:07;;;;;;;3.22;1.38;;;;;;;;;;5016777;28;20492;-81
2023/06/04 01:23:45;;;;;;;4.10;1.50;;;;;;;;;;5043544;28;20076;-81
2023/06/04 01:26:10;;;;;;;3.50;1.40;;;;;;;;;;5016525;28;20496;-82
2023/06/04 01:28:36;;;;;;;4.70;1.52;;;;;;;;;;5024611;28;20044;-81
2023/06/04 01:31:03;;;;;;;3.72;1.67;;;;;;;;;;5011731;28;20025;-81
2023/06/04 01:33:28;;;;;;;2.13;1.20;;;;;;;;;;5028953;28;20618;-81
2023/06/04 01:35:54;;;;;;;3.55;1.27;;;;;;;;;;5014830;28;20064;-81
2023/06/04 01:38:20;;;;;;;3.60;1.45;;;;;;;;;;5026434;28;20038;-81
2023/06/04 01:40:46;;;;;;;3.50;1.60;;;;;;;;;;5026763;28;20095;-82
2023/06/04 01:43:11;;;;;;;3.28;1.45;;;;;;;;;;5013233;28;20033;-82
2023/06/04 01:45:36;;;;;;;3.13;1.40;;;;;;;;;;5027498;28;20044;-82
2023/06/04 01:48:23;;;;;;;3.58;1.40;;;;;;;;;;5026451;28;20496;-82
2023/06/04 01:50:48;;;;;;;3.53;1.37;;;;;;;;;;4945909;28;20035;-82
2023/06/04 01:53:14;;;;;;;5.10;1.30;;;;;;;;;;4948865;29;20275;-82
2023/06/04 01:55:40;;;;;;;3.08;1.10;;;;;;;;;;4948181;29;20391;-82
2023/06/04 01:58:07;;;;;;;4.90;1.40;;;;;;;;;;4953501;28;20039;-81
2023/06/04 02:00:32;;;;;;;2.80;0.98;;;;;;;;;;4912986;29;20043;-81
2023/06/04 02:02:57;;;;;;;3.28;1.30;;;;;;;;;;4913257;29;20579;-81
2023/06/04 02:05:24;;;;;;;2.70;1.27;;;;;;;;;;4912012;29;20129;-82
2023/06/04 02:07:49;;;;;;;3.17;1.50;;;;;;;;;;4929291;29;20066;-82
2023/06/04 02:10:16;;;;;;;2.67;1.20;;;;;;;;;;4929185;28;20036;-82
2023/06/04 02:15:49;;;;;;;3.17;1.27;;;;;;;;;;4943901;29;20042;-81
2023/06/04 02:18:20;;;;;;;3.35;1.45;;;;;;;;;;4945192;29;20483;-81
2023/06/04 02:20:47;;;;;;;2.78;1.15;;;;;;;;;;4928610;29;20054;-81
2023/06/04 02:23:14;;;;;;;2.78;1.20;;;;;;;;;;4945069;29;20118;-81
2023/06/04 02:25:39;;;;;;;2.80;1.10;;;;;;;;;;4929152;29;20067;-81
2023/06/04 02:28:05;;;;;;;2.83;1.05;;;;;;;;;;4987306;28;20532;-81
2023/06/04 02:30:31;;;;;;;3.55;1.10;;;;;;;;;;5042336;28;20033;-81
2023/06/04 02:32:57;;;;;;;2.88;1.30;;;;;;;;;;5026057;28;20060;-81
2023/06/04 02:35:23;;;;;;;2.90;1.15;;;;;;;;;;5017653;28;20140;-81
2023/06/04 02:37:49;;;;;;;3.38;1.10;;;;;;;;;;5027167;28;20688;-81
2023/06/04 02:40:15;;;;;;;2.97;1.20;;;;;;;;;;5041558;28;20036;-81
2023/06/04 02:42:40;;;;;;;5.07;1.23;;;;;;;;;;5009140;28;20041;-81
2023/06/04 02:45:06;;;;;;;2.47;1.10;;;;;;;;;;5026742;28;20033;-81
2023/06/04 02:47:32;;;;;;;3.05;1.15;;;;;;;;;;5020319;28;20419;-81
2023/06/04 02:49:57;;;;;;;3.10;1.10;;;;;;;;;;5010825;28;20037;-81
2023/06/04 02:52:25;;;;;;;2.70;1.10;;;;;;;;;;5043618;28;20038;-81
2023/06/04 02:54:50;;;;;;;3.05;1.40;;;;;;;;;;5025099;28;20206;-81
2023/06/04 02:57:16;;;;;;;2.63;1.00;;;;;;;;;;5043096;28;20345;-81
2023/06/04 02:59:41;;;;;;;3.85;1.23;;;;;;;;;;5025272;28;20190;-81
2023/06/04 03:02:06;;;;;;;4.30;1.30;;;;;;;;;;5009767;28;20029;-80
2023/06/04 03:04:34;;;;;;;2.63;1.10;;;;;;;;;;5024067;28;20037;-81
2023/06/04 03:07:02;;;;;;;2.92;1.13;;;;;;;;;;5042723;28;20120;-81
2023/06/04 03:09:29;;;;;;;3.83;1.20;;;;;;;;;;5042205;28;20476;-81
2023/06/04 03:11:57;;;;;;;3.50;1.20;;;;;;;;;;5025044;28;20405;-81
2023/06/04 03:14:23;;;;;;;2.67;1.10;;;;;;;;;;5024939;28;20137;-81
2023/06/04 03:16:48;;;;;;;3.55;1.30;;;;;;;;;;5041637;28;20052;-81
2023/06/04 03:19:16;;;;;;;2.60;1.02;;;;;;;;;;5011651;28;20033;-81
2023/06/04 03:21:42;;;;;;;3.70;1.10;;;;;;;;;;5012725;28;20041;-81
2023/06/04 03:24:07;;;;;;;2.72;1.20;;;;;;;;;;5012646;28;20037;-82
2023/06/04 03:26:33;;;;;;;4.40;1.20;;;;;;;;;;5027120;28;20064;-81
2023/06/04 03:28:58;;;;;;;5.13;1.40;;;;;;;;;;5015755;28;20039;-81
2023/06/04 03:31:23;;;;;;;2.60;1.08;;;;;;;;;;5025848;28;20531;-82
2023/06/04 03:33:49;;;;;;;2.70;1.23;;;;;;;;;;5009874;28;20119;-82
2023/06/04 03:36:16;;;;;;;3.60;1.40;;;;;;;;;;5024588;28;20045;-82
2023/06/04 03:38:41;;;;;;;3.43;1.10;;;;;;;;;;5024678;28;20040;-82
2023/06/04 03:41:06;;;;;;;3.15;1.23;;;;;;;;;;5025488;28;20499;-81
2023/06/04 03:43:32;;;;;;;2.70;1.10;;;;;;;;;;5022714;28;20090;-82
2023/06/04 03:45:57;;;;;;;5.05;1.25;;;;;;;;;;5042740;28;20041;-82
2023/06/04 03:48:22;;;;;;;2.90;1.10;;;;;;;;;;5003195;28;20052;-82
2023/06/04 03:50:49;;;;;;;3.38;1.42;;;;;;;;;;5008888;28;20553;-82
2023/06/04 03:53:14;;;;;;;3.42;1.17;;;;;;;;;;5025064;28;20480;-82
2023/06/04 03:55:40;;;;;;;3.05;1.30;;;;;;;;;;5007788;28;20033;-82
2023/06/04 03:58:06;;;;;;;3.13;1.13;;;;;;;;;;5023860;28;20789;-82
2023/06/04 04:00:31;;;;;;;3.45;1.10;;;;;;;;;;5008346;28;20638;-82
2023/06/04 04:02:57;;;;;;;3.53;1.10;;;;;;;;;;5024313;28;20152;-82
2023/06/04 04:05:23;;;;;;;4.22;1.30;;;;;;;;;;5024925;28;20041;-82
2023/06/04 04:07:48;;;;;;;2.83;1.23;;;;;;;;;;5010099;28;20048;-82
2023/06/04 04:10:14;;;;;;;3.58;1.55;;;;;;;;;;5008914;28;20041;-82
2023/06/04 04:12:39;;;;;;;2.80;1.23;;;;;;;;;;5008211;28;20036;-82
2023/06/04 04:15:05;;;;;;;3.03;1.20;;;;;;;;;;5026129;28;20067;-82
2023/06/04 04:17:30;;;;;;;3.47;1.50;;;;;;;;;;5042131;28;20084;-82
2023/06/04 04:19:56;;;;;;;3.10;1.20;;;;;;;;;;5016652;28;20047;-83
2023/06/04 04:22:21;;;;;;;2.38;1.02;;;;;;;;;;5001606;28;20497;-82
2023/06/04 04:24:47;;;;;;;3.65;1.50;;;;;;;;;;5024213;28;20033;-82
2023/06/04 04:27:12;;;;;;;3.47;1.23;;;;;;;;;;5024020;28;20029;-82
2023/06/04 04:29:43;;;;;;;3.35;1.35;;;;;;;;;;5023518;28;20553;-82
2023/06/04 04:32:11;;;;;;;2.88;1.40;;;;;;;;;;5010764;28;20033;-82
2023/06/04 04:34:39;;;;;;;3.92;1.35;;;;;;;;;;4997029;28;20032;-82
2023/06/04 04:37:08;;;;;;;3.70;1.30;;;;;;;;;;5023826;28;20055;-82
2023/06/04 04:39:34;;;;;;;5.25;1.13;;;;;;;;;;5009191;28;20098;-82
2023/06/04 04:42:00;;;;;;;3.00;1.05;;;;;;;;;;5012294;28;20102;-82
2023/06/04 04:44:25;;;;;;;2.80;1.10;;;;;;;;;;5007566;28;20037;-82
2023/06/04 04:46:51;;;;;;;3.42;1.25;;;;;;;;;;5024465;28;20069;-82
2023/06/04 04:49:16;;;;;;;3.38;1.20;;;;;;;;;;5017909;28;20037;-82
2023/06/04 04:51:42;;;;;;;3.00;1.20;;;;;;;;;;5041334;28;20082;-82
2023/06/04 04:54:07;;;;;;;3.42;1.38;;;;;;;;;;5021013;28;20060;-83
2023/06/04 04:56:36;;;;;;;2.45;1.00;;;;;;;;;;5043374;28;20033;-83
2023/06/04 04:59:02;;;;;;;7.60;2.25;;;;;;;;;;5039796;28;20125;-82
2023/06/04 05:01:27;;;;;;;2.30;0.95;;;;;;;;;;5023738;28;20120;-81
2023/06/04 05:03:53;;;;;;;2.65;1.10;;;;;;;;;;5022598;28;20036;-81
2023/06/04 05:06:18;;;;;;;3.55;1.20;;;;;;;;;;5012485;28;20102;-81
2023/06/04 05:08:44;;;;;;;2.15;0.82;;;;;;;;;;5027846;28;20120;-81
2023/06/04 05:11:09;;;;;;;2.13;0.90;;;;;;;;;;5026450;28;20048;-81
2023/06/04 05:13:36;;;;;;;3.42;1.23;;;;;;;;;;5029527;28;20056;-81
2023/06/04 05:16:06;;;;;;;2.40;0.80;;;;;;;;;;5027482;28;20067;-82
2023/06/04 05:18:34;;;;;;;2.83;1.38;;;;;;;;;;5027736;28;20393;-81
2023/06/04 05:21:02;;;;;;;4.50;1.00;;;;;;;;;;5025540;28;20413;-81
2023/06/04 05:23:29;;;;;;;2.75;1.25;;;;;;;;;;5028027;28;20041;-81
2023/06/04 05:25:55;;;;;;;2.63;1.00;;;;;;;;;;5011416;28;20455;-81
2023/06/04 05:28:20;;;;;;;5.07;1.10;;;;;;;;;;5042312;28;20299;-81
2023/06/04 05:30:48;;;;;;;3.80;1.15;;;;;;;;;;5011906;28;20037;-81
2023/06/04 05:33:20;;;;;;;2.65;1.13;;;;;;;;;;5010821;28;20032;-82
2023/06/04 05:35:48;;;;;;;4.55;1.20;;;;;;;;;;5028134;28;20040;-82
2023/06/04 05:38:17;;;;;;;3.28;1.27;;;;;;;;;;5009841;28;20036;-82
2023/06/04 05:40:43;;;;;;;2.88;1.08;;;;;;;;;;5008170;28;20420;-81
2023/06/04 05:43:08;;;;;;;4.55;1.30;;;;;;;;;;5002329;28;20120;-81
2023/06/04 05:45:34;;;;;;;2.97;0.90;;;;;;;;;;5011916;28;20135;-81
2023/06/04 05:47:59;;;;;;;3.15;1.10;;;;;;;;;;5043354;28;20148;-81
2023/06/04 05:50:24;;;;;;;3.10;1.10;;;;;;;;;;5010030;28;20033;-81
2023/06/04 05:52:50;;;;;;;3.85;1.23;;;;;;;;;;5044534;28;20047;-81
2023/06/04 05:55:16;;;;;;;4.22;1.05;;;;;;;;;;5010406;28;20094;-81
2023/06/04 05:57:42;;;;;;;2.88;1.05;;;;;;;;;;5043701;28;20029;-81
2023/06/04 06:00:09;;;;;;;6.68;1.00;;;;;;;;;;5028514;28;20396;-81
2023/06/04 06:02:35;;;;;;;;;;;;;;;;;;5044645;28;20041;-81
2023/06/04 06:05:00;;;;;;;3.40;1.17;;;;;;;;;;5039629;28;19913;-81
2023/06/04 06:07:25;;;;;;;3.00;0.95;;;;;;;;;;5023796;28;20079;-81
2023/06/04 06:09:50;;;;;;;3.00;0.90;;;;;;;;;;5041770;28;20063;-81
2023/06/04 06:12:16;;;;;;;3.08;1.00;;;;;;;;;;5024290;28;20731;-82
2023/06/04 06:14:41;;;;;;;2.83;0.90;;;;;;;;;;5028088;28;20028;-82
2023/06/04 06:17:07;;;;;;;4.30;0.90;;;;;;;;;;5016032;28;20091;-82
2023/06/04 06:19:32;;;;;;;1.90;0.80;;;;;;;;;;5042592;28;20469;-82
2023/06/04 06:21:58;;;;;;;2.92;1.05;;;;;;;;;;5044040;28;20124;-82
2023/06/04 06:24:24;;;;;;;2.25;0.82;;;;;;;;;;5044935;28;20358;-81
2023/06/04 06:26:49;;;;;;;3.28;0.93;;;;;;;;;;5044264;28;20041;-82
2023/06/04 06:29:15;;;;;;;2.55;0.93;;;;;;;;;;5044217;28;20474;-82
2023/06/04 06:31:40;;;;;;;3.05;0.90;;;;;;;;;;5041081;28;20029;-82
2023/06/04 06:34:05;;;;;;;1.92;0.70;;;;;;;;;;5027561;28;20353;-83
2023/06/04 06:36:32;;;;;;;3.28;0.70;;;;;;;;;;5040352;28;20041;-82
2023/06/04 06:38:58;;;;;;;2.33;0.90;;;;;;;;;;5043302;28;20417;-82
2023/06/04 06:41:23;;;;;;;2.97;0.60;;;;;;;;;;5042856;28;20051;-83
2023/06/04 06:43:49;;;;;;;2.05;0.80;;;;;;;;;;5025152;28;20399;-82
2023/06/04 06:46:14;;;;;;;2.55;0.70;;;;;;;;;;5008275;28;20107;-82
2023/06/04 06:48:40;;;;;;;4.30;1.02;;;;;;;;;;5044529;28;20037;-82
2023/06/04 06:51:06;;;;;;;3.88;1.20;;;;;;;;;;5021683;28;20036;-82
2023/06/04 06:53:31;;;;;;;2.38;0.70;;;;;;;;;;5042306;28;20036;-83
2023/06/04 06:55:56;;;;;;;2.13;0.60;;;;;;;;;;5024596;28;20036;-82
2023/06/04 06:58:23;;;;;;;2.72;0.90;;;;;;;;;;5023997;28;20345;-82
2023/06/04 07:00:48;;;;;;;4.50;1.02;;;;;;;;;;5004144;28;20050;-82
2023/06/04 07:03:15;;;;;;;1.13;0.50;;;;;;;;;;5025526;28;20060;-82
2023/06/04 07:05:40;;;;;;;2.00;0.55;;;;;;;;;;5025905;28;20033;-82
2023/06/04 07:08:06;;;;;;;2.22;0.68;;;;;;;;;;5025559;28;20451;-83
2023/06/04 07:10:31;;;;;;;3.75;0.80;;;;;;;;;;5023053;28;20612;-83
2023/06/04 07:12:56;;;;;;;2.85;0.80;;;;;;;;;;5008364;28;20041;-83
2023/06/04 07:15:22;;;;;;;4.15;0.73;;;;;;;;;;5024470;28;20551;-80
2023/06/04 07:17:48;;;;;;;1.23;0.40;;;;;;;;;;5043242;28;20029;-81
2023/06/04 07:20:13;;;;;;;1.95;0.40;;;;;;;;;;5043228;28;20037;-80
2023/06/04 07:22:39;;;;;;;2.42;0.60;;;;;;;;;;5042652;28;20765;-81
2023/06/04 07:25:25;;;;;;;2.55;0.60;;;;;;;;;;5040335;28;20041;-82
2023/06/04 07:27:51;;;;;;;3.83;0.50;;;;;;;;;;4942368;28;20034;-80
2023/06/04 07:30:16;;;;;;;1.27;0.40;;;;;;;;;;4942790;28;20137;-80
2023/06/04 07:32:48;;;;;;;2.42;0.50;;;;;;;;;;4963595;28;20061;-79
2023/06/04 07:35:14;;;;;;;5.20;0.68;;;;;;;;;;4942736;28;20176;-80
2023/06/04 07:37:39;;;;;;;2.38;0.60;;;;;;;;;;4963932;28;20125;-80
2023/06/04 07:40:05;;;;;;;1.30;0.40;;;;;;;;;;4927558;28;20186;-79
2023/06/04 07:42:31;;;;;;;1.85;0.57;;;;;;;;;;4942009;28;20499;-79
2023/06/04 07:44:56;;;;;;;3.90;0.55;;;;;;;;;;4963121;28;20049;-80
2023/06/04 07:47:22;;;;;;;2.30;0.43;;;;;;;;;;4946172;28;20050;-80
2023/06/04 07:49:47;;;;;;;2.60;0.63;;;;;;;;;;4961872;28;20463;-80
2023/06/04 07:52:13;;;;;;;1.77;0.50;;;;;;;;;;4947190;28;20035;-79
2023/06/04 07:54:41;;;;;;;1.38;0.30;;;;;;;;;;4941150;28;20031;-79
2023/06/04 07:57:06;;;;;;;3.03;0.77;;;;;;;;;;4945950;28;20043;-79
2023/06/04 07:59:32;;;;;;;3.65;0.50;;;;;;;;;;4962580;28;20093;-79
2023/06/04 08:01:57;;;;;;;1.77;0.57;;;;;;;;;;4945097;28;20394;-79
2023/06/04 08:04:22;;;;;;;3.22;0.50;;;;;;;;;;4983783;28;20495;-80
2023/06/04 08:06:49;;;;;;;1.05;0.30;;;;;;;;;;5005591;28;20460;-80
2023/06/04 08:09:15;;;;;;;2.17;0.40;;;;;;;;;;5024826;28;20071;-79
2023/06/04 08:11:42;;;;;;;2.20;0.60;;;;;;;;;;4997094;28;20472;-80
2023/06/04 08:14:08;;;;;;;1.35;0.47;;;;;;;;;;5023715;28;20570;-79
2023/06/04 08:16:33;;;;;;;2.05;0.50;;;;;;;;;;5041104;28;20041;-79
2023/06/04 08:18:59;;;;;;;1.45;0.50;;;;;;;;;;5006946;28;20028;-80
2023/06/04 08:21:28;;;;;;;1.27;0.40;;;;;;;;;;5041668;28;20048;-79
2023/06/04 08:23:54;;;;;;;1.23;0.22;;;;;;;;;;5039506;28;20060;-80
2023/06/04 08:26:19;;;;;;;1.55;0.43;;;;;;;;;;5019747;28;20354;-80
2023/06/04 08:28:48;;;;;;;2.38;0.57;;;;;;;;;;5024727;28;20068;-79
2023/06/04 08:31:14;;;;;;;2.13;0.57;;;;;;;;;;5024485;28;20428;-79
2023/06/04 08:33:45;;;;;;;1.80;0.55;;;;;;;;;;5042528;28;20032;-79
2023/06/04 08:36:11;;;;;;;1.08;0.30;;;;;;;;;;5007866;28;20051;-79
2023/06/04 08:38:38;;;;;;;2.10;0.60;;;;;;;;;;5041679;28;20116;-79
2023/06/04 08:41:16;;;;;;;1.58;0.45;;;;;;;;;;4999452;28;20098;-79
2023/06/04 08:43:43;;;;;;;;;;;;;;;;;;5029764;28;20029;-82
2023/06/04 08:46:09;;;;;;;1.80;0.57;;;;;;;;;;5025944;28;20433;-82
2023/06/04 08:48:35;;;;;;;1.33;0.32;;;;;;;;;;5006734;28;20033;-82
2023/06/04 08:51:02;;;;;;;1.02;0.30;;;;;;;;;;5028865;28;20115;-83
2023/06/04 08:53:28;;;;;;;3.65;0.60;;;;;;;;;;5028120;28;20083;-83
2023/06/04 08:55:53;;;;;;;1.70;0.50;;;;;;;;;;5026456;28;20032;-84
2023/06/04 08:58:19;;;;;;;2.13;0.80;;;;;;;;;;5003123;28;20041;-80
2023/06/04 09:00:44;;;;;;;0.77;0.30;;;;;;;;;;5043500;28;20061;-80
2023/06/04 09:03:11;;;;;;;2.08;0.40;;;;;;;;;;5008198;28;20055;-81
2023/06/04 09:05:36;;;;;;;1.40;0.40;;;;;;;;;;5006407;28;20086;-81
2023/06/04 09:08:04;;;;;;;1.92;0.47;;;;;;;;;;5027912;28;20578;-81
2023/06/04 09:10:31;;;;;;;1.48;0.50;;;;;;;;;;5019580;28;20060;-83
2023/06/04 09:12:57;;;;;;;2.35;0.50;;;;;;;;;;5044236;28;20029;-82
2023/06/04 09:15:23;;;;;;;1.30;0.53;;;;;;;;;;5011674;28;20041;-81
2023/06/04 09:17:48;;;;;;;1.23;0.50;;;;;;;;;;5044165;28;20029;-80
2023/06/04 09:20:24;;;;;;;1.40;0.40;;;;;;;;;;5010879;28;20029;-81
2023/06/04 09:22:50;;;;;;;3.00;0.50;;;;;;;;;;5030078;28;20168;-80
2023/06/04 09:25:25;;;;;;;0.70;0.30;;;;;;;;;;5025914;28;20505;-81
2023/06/04 09:27:51;;;;;;;2.70;0.50;;;;;;;;;;5028553;28;20040;-81
2023/06/04 09:30:17;;;;;;;2.05;0.47;;;;;;;;;;5028661;28;20096;-84
2023/06/04 09:32:42;;;;;;;2.65;0.50;;;;;;;;;;5044576;28;20033;-81
2023/06/04 09:35:13;;;;;;;2.55;0.50;;;;;;;;;;5045773;28;20041;-81
2023/06/04 09:37:40;;;;;;;1.58;0.50;;;;;;;;;;5022590;28;20491;-81
2023/06/04 09:40:06;;;;;;;1.80;0.60;;;;;;;;;;5011680;28;20033;-81
2023/06/04 09:42:42;;;;;;;2.03;0.55;;;;;;;;;;5042539;28;20272;-81
2023/06/04 09:45:08;;;;;;;1.30;0.40;;;;;;;;;;5019178;28;20496;-81
2023/06/04 09:47:43;;;;;;;1.40;0.50;;;;;;;;;;5043748;28;20056;-81
2023/06/04 09:50:10;;;;;;;2.10;0.40;;;;;;;;;;5002904;28;20154;-81
2023/06/04 09:52:37;;;;;;;1.30;0.40;;;;;;;;;;5040291;28;20461;-81
2023/06/04 09:55:03;;;;;;;0.70;0.30;;;;;;;;;;5025138;28;20037;-81
2023/06/04 09:57:39;;;;;;;1.23;0.50;;;;;;;;;;5025507;28;20098;-81
2023/06/04 10:00:09;;;;;;;1.40;0.40;;;;;;;;;;5044263;28;20279;-81
2023/06/04 10:02:34;;;;;;;2.28;0.50;;;;;;;;;;5042906;28;20362;-81
2023/06/04 10:05:00;;;;;;;1.77;0.47;;;;;;;;;;5007961;28;20137;-81
2023/06/04 10:07:26;;;;;;;1.67;0.55;;;;;;;;;;5025277;28;20055;-81
2023/06/04 10:09:54;;;;;;;1.52;0.50;;;;;;;;;;5023079;28;20030;-82
2023/06/04 10:12:25;;;;;;;1.77;0.50;;;;;;;;;;5002425;28;20041;-82
2023/06/04 10:14:59;;;;;;;1.70;0.60;;;;;;;;;;5027061;28;20629;-82
2023/06/04 10:17:27;;;;;;;0.80;0.30;;;;;;;;;;5017182;28;20037;-82
2023/06/04 10:19:54;;;;;;;1.20;0.40;;;;;;;;;;5027522;28;20032;-82
2023/06/04 10:22:20;;;;;;;0.90;0.30;;;;;;;;;;5016544;28;20116;-82
2023/06/04 10:24:46;;;;;;;3.22;0.52;;;;;;;;;;5022694;28;20045;-82
2023/06/04 10:27:12;;;;;;;1.45;0.30;;;;;;;;;;5024054;28;20120;-82
2023/06/04 10:29:39;;;;;;;2.63;0.50;;;;;;;;;;5024325;28;20100;-82
2023/06/04 10:32:04;;;;;;;1.10;0.40;;;;;;;;;;5022292;28;20059;-82
2023/06/04 10:34:30;;;;;;;1.53;0.37;;;;;;;;;;5023943;28;20917;-82
2023/06/04 10:36:55;;;;;;;1.40;0.40;;;;;;;;;;5020523;28;20076;-83
2023/06/04 10:39:28;;;;;;;1.27;0.40;;;;;;;;;;5006865;28;20041;-82
2023/06/04 10:42:12;;;;;;;1.58;0.30;;;;;;;;;;5022263;28;20026;-82
2023/06/04 10:44:48;;;;;;;1.92;0.55;;;;;;;;;;5024007;28;20037;-82
2023/06/04 10:47:26;;;;;;;2.03;0.50;;;;;;;;;;5023457;28;20095;-82
2023/06/04 10:49:54;;;;;;;1.70;0.50;;;;;;;;;;5021229;28;20040;-82
2023/06/04 10:52:20;;;;;;;1.88;0.60;;;;;;;;;;5024073;28;20034;-82
2023/06/04 10:54:48;;;;;;;1.92;0.40;;;;;;;;;;5023317;28;20057;-82
2023/06/04 10:57:17;;;;;;;2.50;0.60;;;;;;;;;;5007053;28;20041;-82
2023/06/04 10:59:59;;;;;;;2.47;0.60;;;;;;;;;;5001926;28;20037;-82
2023/06/04 11:02:25;;;;;;;0.60;0.32;;;;;;;;;;5012920;28;20041;-82
2023/06/04 11:05:05;;;;;;;1.42;0.38;;;;;;;;;;5023549;28;20033;-83
2023/06/04 11:07:44;;;;;;;1.25;0.60;;;;;;;;;;5022925;28;20049;-82
2023/06/04 11:10:10;;;;;;;1.13;0.40;;;;;;;;;;5037058;28;20029;-82
2023/06/04 11:12:43;;;;;;;2.33;0.60;;;;;;;;;;5022131;28;20053;-82
2023/06/04 11:15:08;;;;;;;4.78;0.60;;;;;;;;;;5026100;28;20033;-82
2023/06/04 11:17:34;;;;;;;1.60;0.47;;;;;;;;;;5022838;28;20026;-82
2023/06/04 11:20:00;;;;;;;1.50;0.40;;;;;;;;;;5018609;28;20272;-82
2023/06/04 11:22:25;;;;;;;2.80;0.63;;;;;;;;;;5041979;28;20048;-81
2023/06/04 11:24:59;;;;;;;1.10;0.43;;;;;;;;;;5041945;28;20640;-82
2023/06/04 11:27:24;;;;;;;1.15;0.50;;;;;;;;;;5025102;28;20033;-82
2023/06/04 11:29:51;;;;;;;1.77;0.40;;;;;;;;;;5017820;28;20036;-82
2023/06/04 11:32:23;;;;;;;1.67;0.47;;;;;;;;;;5024672;28;20493;-82
2023/06/04 11:34:48;;;;;;;1.17;0.40;;;;;;;;;;5023711;28;20496;-83
2023/06/04 11:37:14;;;;;;;2.40;0.90;;;;;;;;;;5042239;28;20124;-82
2023/06/04 11:39:42;;;;;;;2.00;0.60;;;;;;;;;;5011401;28;20033;-82
2023/06/04 11:42:08;;;;;;;1.33;0.40;;;;;;;;;;5040233;28;20098;-82
2023/06/04 11:44:33;;;;;;;0.80;0.33;;;;;;;;;;5025006;28;20025;-83
2023/06/04 11:46:59;;;;;;;1.40;0.53;;;;;;;;;;5008900;28;20033;-83
2023/06/04 11:49:26;;;;;;;0.70;0.30;;;;;;;;;;5038515;28;20484;-82
2023/06/04 11:51:51;;;;;;;;;;;;;;;;;;5040675;28;20452;-82
2023/06/04 11:54:18;;;;;;;2.50;0.52;;;;;;;;;;5021822;28;19913;-82
2023/06/04 11:56:44;;;;;;;2.17;0.80;;;;;;;;;;5009404;28;20422;-82
2023/06/04 11:59:13;;;;;;;1.53;0.50;;;;;;;;;;5043863;28;20431;-82
2023/06/04 12:01:39;;;;;;;1.73;0.50;;;;;;;;;;5025187;28;20342;-81
2023/06/04 12:04:15;;;;;;;1.38;0.50;;;;;;;;;;5021586;28;20033;-81
2023/06/04 12:06:57;;;;;;;3.67;0.60;;;;;;;;;;5016159;28;20416;-83
2023/06/04 12:09:32;;;;;;;3.22;0.77;;;;;;;;;;5042620;28;20048;-83
2023/06/04 12:11:59;;;;;;;2.20;0.60;;;;;;;;;;5041625;28;20135;-83
2023/06/04 12:14:24;;;;;;;2.40;0.50;;;;;;;;;;5021785;28;20048;-83
2023/06/04 12:17:05;;;;;;;1.48;0.60;;;;;;;;;;5013587;28;20041;-81
2023/06/04 12:19:31;;;;;;;4.78;0.80;;;;;;;;;;5015618;28;20116;-81
2023/06/04 12:22:01;;;;;;;1.60;0.50;;;;;;;;;;5042240;28;20591;-82
2023/06/04 12:24:27;;;;;;;1.35;0.40;;;;;;;;;;5023802;28;20040;-83
2023/06/04 12:27:02;;;;;;;2.50;0.60;;;;;;;;;;5042388;28;20037;-82
2023/06/04 12:29:27;;;;;;;1.70;0.50;;;;;;;;;;5013729;28;20041;-82
2023/06/04 12:32:05;;;;;;;1.98;0.68;;;;;;;;;;5041767;28;20036;-82
2023/06/04 12:34:31;;;;;;;1.90;0.70;;;;;;;;;;5025144;28;20435;-82
2023/06/04 12:36:57;;;;;;;1.70;0.50;;;;;;;;;;5016284;28;20037;-81
2023/06/04 12:39:22;;;;;;;2.35;0.60;;;;;;;;;;5043035;28;20282;-81
2023/06/04 12:41:48;;;;;;;1.70;0.50;;;;;;;;;;5025567;28;20033;-82
2023/06/04 12:44:13;;;;;;;2.10;0.73;;;;;;;;;;5025162;28;20041;-81
2023/06/04 12:46:38;;;;;;;3.20;0.60;;;;;;;;;;5042825;28;20056;-81
2023/06/04 12:49:05;;;;;;;2.90;0.60;;;;;;;;;;5009516;28;20087;-82
2023/06/04 12:51:31;;;;;;;2.65;1.08;;;;;;;;;;5025169;28;20550;-82
2023/06/04 12:53:57;;;;;;;2.63;0.90;;;;;;;;;;5016345;28;20032;-81
2023/06/04 12:56:23;;;;;;;3.53;0.63;;;;;;;;;;5038357;28;20095;-81
2023/06/04 12:58:48;;;;;;;4.45;0.80;;;;;;;;;;5006755;28;20425;-82
2023/06/04 13:01:15;;;;;;;2.10;0.70;;;;;;;;;;5038963;28;20656;-82
2023/06/04 13:03:40;;;;;;;2.80;0.73;;;;;;;;;;5026085;28;20056;-82
2023/06/04 13:06:06;;;;;;;2.40;0.80;;;;;;;;;;5022636;28;20490;-82
2023/06/04 13:08:32;;;;;;;3.15;0.75;;;;;;;;;;5006609;28;20044;-82
2023/06/04 13:10:58;;;;;;;1.70;0.52;;;;;;;;;;5024383;28;20040;-82
2023/06/04 13:13:23;;;;;;;1.73;0.63;;;;;;;;;;5042224;28;20033;-81
2023/06/04 13:15:48;;;;;;;2.00;0.65;;;;;;;;;;5008360;28;20485;-82
2023/06/04 13:18:14;;;;;;;1.88;0.70;;;;;;;;;;5025100;28;20080;-82
2023/06/04 13:20:40;;;;;;;2.53;0.80;;;;;;;;;;5041041;28;20056;-83
2023/06/04 13:23:06;;;;;;;1.77;0.60;;;;;;;;;;5008684;28;20071;-83
2023/06/04 13:25:33;;;;;;;1.33;0.60;;;;;;;;;;5009351;28;20033;-83
2023/06/04 13:28:04;;;;;;;2.30;0.70;;;;;;;;;;5029183;28;20108;-83
2023/06/04 13:30:30;;;;;;;1.50;0.52;;;;;;;;;;5024785;28;20029;-83
2023/06/04 13:32:55;;;;;;;2.13;0.60;;;;;;;;;;5028436;28;20118;-83
2023/06/04 13:35:21;;;;;;;3.22;0.80;;;;;;;;;;5011436;28;20089;-83
2023/06/04 13:37:46;;;;;;;1.40;0.53;;;;;;;;;;5029066;28;20826;-83
2023/06/04 13:40:12;;;;;;;2.03;0.60;;;;;;;;;;5045938;28;20036;-83
2023/06/04 13:42:38;;;;;;;2.03;0.60;;;;;;;;;;5025743;28;20037;-83
2023/06/04 13:45:04;;;;;;;1.10;0.50;;;;;;;;;;5026207;28;20343;-84
2023/06/04 13:47:29;;;;;;;2.10;0.70;;;;;;;;;;5026666;28;20041;-83
2023/06/04 13:49:55;;;;;;;1.60;0.60;;;;;;;;;;5043009;28;20029;-82
2023/06/04 13:52:21;;;;;;;2.07;0.60;;;;;;;;;;5042235;28;20039;-81
2023/06/04 13:54:46;;;;;;;2.40;0.60;;;;;;;;;;5018880;28;20094;-81
2023/06/04 13:57:12;;;;;;;1.97;0.63;;;;;;;;;;5011702;28;20037;-81
2023/06/04 13:59:38;;;;;;;1.47;0.60;;;;;;;;;;5028213;28;20039;-83
2023/06/04 14:02:03;;;;;;;2.67;0.67;;;;;;;;;;5027600;28;20032;-84
2023/06/04 14:04:29;;;;;;;1.60;0.67;;;;;;;;;;5042970;28;20048;-83
2023/06/04 14:06:54;;;;;;;2.78;0.60;;;;;;;;;;5026458;28;20033;-82
2023/06/04 14:09:20;;;;;;;1.50;0.65;;;;;;;;;;5018485;28;20040;-82
2023/06/04 14:11:50;;;;;;;2.35;0.70;;;;;;;;;;5025834;28;20040;-81
2023/06/04 14:14:17;;;;;;;3.67;0.90;;;;;;;;;;5010318;28;20059;-81
2023/06/04 14:16:42;;;;;;;;;;;;;;;;;;5044076;28;20116;-81
2023/06/04 14:19:08;;;;;;;1.90;0.60;;;;;;;;;;5018661;28;19999;-82
2023/06/04 14:21:33;;;;;;;4.43;0.70;;;;;;;;;;5008130;28;20041;-81
2023/06/04 14:23:59;;;;;;;1.70;0.60;;;;;;;;;;5044282;28;20039;-83
2023/06/04 14:26:24;;;;;;;1.90;0.65;;;;;;;;;;5025149;28;20496;-81
2023/06/04 14:28:50;;;;;;;2.53;0.90;;;;;;;;;;5025346;28;20032;-81
2023/06/04 14:31:15;;;;;;;1.58;0.63;;;;;;;;;;5031664;28;20423;-81
2023/06/04 14:33:40;;;;;;;2.72;0.60;;;;;;;;;;5044484;28;20029;-81
2023/06/04 14:36:06;;;;;;;2.90;0.73;;;;;;;;;;5044130;28;20483;-81
2023/06/04 14:38:32;;;;;;;2.17;0.80;;;;;;;;;;5025851;28;20128;-81
2023/06/04 14:40:57;;;;;;;7.25;0.75;;;;;;;;;;5021742;28;20115;-81
2023/06/04 14:43:23;;;;;;;2.25;0.90;;;;;;;;;;5045043;28;20094;-82
2023/06/04 14:45:48;;;;;;;1.65;0.70;;;;;;;;;;5009417;28;20036;-82